sensor_id;sensor_type;location;lat;lon;timestamp;P1;durP1;ratioP1;P2;durP2;ratioP2
44366;SDS011;30086;57.660;12.000;2022-08-19T00:01:21;25.92;;;16.45;;
44366;SDS011;30086;57.660;12.000;2022-08-19T00:03:47;25.13;;;14.68;;
44366;SDS011;30086;57.660;12.000;2022-08-19T00:06:13;30.45;;;15.43;;
44366;SDS011;30086;57.660;12.000;2022-08-19T00:08:40;24.67;;;14.48;;
44366;SDS011;30086;57.660;12.000;2022-08-19T00:11:06;30.55;;;15.27;;
44366;SDS011;30086;57.660;12.000;2022-08-19T00:13:32;33.38;;;15.25;;
44366;SDS011;30086;57.660;12.000;2022-08-19T00:15:58;29.65;;;15.73;;
44366;SDS011;30086;57.660;12.000;2022-08-19T00:18:25;28.70;;;14.65;;
44366;SDS011;30086;57.660;12.000;2022-08-19T00:20:51;26.80;;;14.18;;
44366;SDS011;30086;57.660;12.000;2022-08-19T00:23:17;29.50;;;14.75;;
44366;SDS011;30086;57.660;12.000;2022-08-19T00:25:43;31.02;;;15.18;;
44366;SDS011;30086;57.660;12.000;2022-08-19T00:28:10;31.20;;;15.13;;
44366;SDS011;30086;57.660;12.000;2022-08-19T00:30:36;27.30;;;15.45;;
44366;SDS011;30086;57.660;12.000;2022-08-19T00:33:02;27.05;;;14.77;;
44366;SDS011;30086;57.660;12.000;2022-08-19T00:35:28;28.65;;;14.20;;
44366;SDS011;30086;57.660;12.000;2022-08-19T00:37:54;28.30;;;14.68;;
44366;SDS011;30086;57.660;12.000;2022-08-19T00:40:21;31.77;;;14.82;;
44366;SDS011;30086;57.660;12.000;2022-08-19T00:42:47;27.42;;;14.82;;
44366;SDS011;30086;57.660;12.000;2022-08-19T00:45:14;29.38;;;14.88;;
44366;SDS011;30086;57.660;12.000;2022-08-19T00:47:42;28.45;;;14.18;;
44366;SDS011;30086;57.660;12.000;2022-08-19T00:50:08;33.85;;;17.10;;
44366;SDS011;30086;57.660;12.000;2022-08-19T00:52:37;29.52;;;15.55;;
44366;SDS011;30086;57.660;12.000;2022-08-19T00:55:05;24.42;;;15.23;;
44366;SDS011;30086;57.660;12.000;2022-08-19T00:57:36;28.08;;;17.27;;
44366;SDS011;30086;57.660;12.000;2022-08-19T01:00:04;37.55;;;18.23;;
44366;SDS011;30086;57.660;12.000;2022-08-19T01:02:31;34.22;;;16.25;;
44366;SDS011;30086;57.660;12.000;2022-08-19T01:04:58;35.30;;;17.02;;
44366;SDS011;30086;57.660;12.000;2022-08-19T01:07:25;26.75;;;16.08;;
44366;SDS011;30086;57.660;12.000;2022-08-19T01:09:51;35.72;;;18.05;;
44366;SDS011;30086;57.660;12.000;2022-08-19T01:12:17;35.47;;;15.80;;
44366;SDS011;30086;57.660;12.000;2022-08-19T01:14:43;32.13;;;16.75;;
44366;SDS011;30086;57.660;12.000;2022-08-19T01:17:10;31.65;;;16.15;;
44366;SDS011;30086;57.660;12.000;2022-08-19T01:19:37;24.58;;;16.42;;
44366;SDS011;30086;57.660;12.000;2022-08-19T01:23:05;30.90;;;17.40;;
44366;SDS011;30086;57.660;12.000;2022-08-19T01:25:00;32.25;;;17.27;;
44366;SDS011;30086;57.660;12.000;2022-08-19T01:27:27;25.55;;;15.77;;
44366;SDS011;30086;57.660;12.000;2022-08-19T01:29:53;26.17;;;16.27;;
44366;SDS011;30086;57.660;12.000;2022-08-19T01:32:19;29.52;;;17.15;;
44366;SDS011;30086;57.660;12.000;2022-08-19T01:34:45;33.67;;;17.30;;
44366;SDS011;30086;57.660;12.000;2022-08-19T01:37:12;31.23;;;16.90;;
44366;SDS011;30086;57.660;12.000;2022-08-19T01:39:38;31.58;;;17.35;;
44366;SDS011;30086;57.660;12.000;2022-08-19T01:42:05;29.85;;;18.10;;
44366;SDS011;30086;57.660;12.000;2022-08-19T01:44:32;32.08;;;18.15;;
44366;SDS011;30086;57.660;12.000;2022-08-19T01:46:58;31.90;;;16.13;;
44366;SDS011;30086;57.660;12.000;2022-08-19T01:49:24;34.33;;;16.88;;
44366;SDS011;30086;57.660;12.000;2022-08-19T01:51:52;34.55;;;19.60;;
44366;SDS011;30086;57.660;12.000;2022-08-19T01:54:19;29.73;;;19.58;;
44366;SDS011;30086;57.660;12.000;2022-08-19T01:56:45;29.73;;;17.13;;
44366;SDS011;30086;57.660;12.000;2022-08-19T01:59:13;30.50;;;16.83;;
44366;SDS011;30086;57.660;12.000;2022-08-19T02:01:40;31.83;;;17.70;;
44366;SDS011;30086;57.660;12.000;2022-08-19T02:04:06;41.42;;;19.58;;
44366;SDS011;30086;57.660;12.000;2022-08-19T02:06:32;40.63;;;21.33;;
44366;SDS011;30086;57.660;12.000;2022-08-19T02:08:58;41.35;;;21.70;;
44366;SDS011;30086;57.660;12.000;2022-08-19T02:11:26;33.28;;;19.17;;
44366;SDS011;30086;57.660;12.000;2022-08-19T02:13:53;41.67;;;21.67;;
44366;SDS011;30086;57.660;12.000;2022-08-19T02:16:19;42.42;;;21.30;;
44366;SDS011;30086;57.660;12.000;2022-08-19T02:18:45;35.13;;;20.05;;
44366;SDS011;30086;57.660;12.000;2022-08-19T02:21:16;41.38;;;21.33;;
44366;SDS011;30086;57.660;12.000;2022-08-19T02:23:42;36.85;;;20.27;;
44366;SDS011;30086;57.660;12.000;2022-08-19T02:26:09;37.17;;;18.95;;
44366;SDS011;30086;57.660;12.000;2022-08-19T02:28:35;41.00;;;19.52;;
44366;SDS011;30086;57.660;12.000;2022-08-19T02:31:02;38.92;;;19.52;;
44366;SDS011;30086;57.660;12.000;2022-08-19T02:33:28;35.25;;;17.83;;
44366;SDS011;30086;57.660;12.000;2022-08-19T02:35:54;32.83;;;18.75;;
44366;SDS011;30086;57.660;12.000;2022-08-19T02:38:20;33.42;;;18.80;;
44366;SDS011;30086;57.660;12.000;2022-08-19T02:40:53;36.17;;;18.67;;
44366;SDS011;30086;57.660;12.000;2022-08-19T02:43:20;36.30;;;19.92;;
44366;SDS011;30086;57.660;12.000;2022-08-19T02:45:46;33.40;;;19.23;;
44366;SDS011;30086;57.660;12.000;2022-08-19T02:48:16;36.90;;;20.25;;
44366;SDS011;30086;57.660;12.000;2022-08-19T02:50:43;35.08;;;18.77;;
44366;SDS011;30086;57.660;12.000;2022-08-19T02:53:09;34.05;;;18.48;;
44366;SDS011;30086;57.660;12.000;2022-08-19T02:55:35;32.70;;;18.15;;
44366;SDS011;30086;57.660;12.000;2022-08-19T02:58:02;34.22;;;16.45;;
44366;SDS011;30086;57.660;12.000;2022-08-19T03:00:28;40.05;;;20.30;;
44366;SDS011;30086;57.660;12.000;2022-08-19T03:02:54;41.33;;;19.67;;
44366;SDS011;30086;57.660;12.000;2022-08-19T03:05:20;38.17;;;18.98;;
44366;SDS011;30086;57.660;12.000;2022-08-19T03:07:46;30.95;;;19.00;;
44366;SDS011;30086;57.660;12.000;2022-08-19T03:10:12;41.70;;;21.35;;
44366;SDS011;30086;57.660;12.000;2022-08-19T03:12:39;35.78;;;19.58;;
44366;SDS011;30086;57.660;12.000;2022-08-19T03:15:05;33.88;;;18.77;;
44366;SDS011;30086;57.660;12.000;2022-08-19T03:17:32;31.67;;;17.73;;
44366;SDS011;30086;57.660;12.000;2022-08-19T03:19:58;37.80;;;19.15;;
44366;SDS011;30086;57.660;12.000;2022-08-19T03:22:24;31.67;;;18.60;;
44366;SDS011;30086;57.660;12.000;2022-08-19T03:24:50;35.95;;;17.83;;
44366;SDS011;30086;57.660;12.000;2022-08-19T03:27:16;36.88;;;17.17;;
44366;SDS011;30086;57.660;12.000;2022-08-19T03:29:43;29.80;;;15.18;;
44366;SDS011;30086;57.660;12.000;2022-08-19T03:32:10;43.95;;;18.27;;
44366;SDS011;30086;57.660;12.000;2022-08-19T03:34:36;40.15;;;16.83;;
44366;SDS011;30086;57.660;12.000;2022-08-19T03:37:04;28.33;;;16.35;;
44366;SDS011;30086;57.660;12.000;2022-08-19T03:39:31;33.10;;;17.63;;
44366;SDS011;30086;57.660;12.000;2022-08-19T03:41:57;33.08;;;17.42;;
44366;SDS011;30086;57.660;12.000;2022-08-19T03:44:27;33.85;;;16.45;;
44366;SDS011;30086;57.660;12.000;2022-08-19T03:46:55;29.88;;;16.38;;
44366;SDS011;30086;57.660;12.000;2022-08-19T03:49:22;29.65;;;16.38;;
44366;SDS011;30086;57.660;12.000;2022-08-19T03:51:49;30.95;;;16.85;;
44366;SDS011;30086;57.660;12.000;2022-08-19T03:54:16;21.73;;;14.85;;
44366;SDS011;30086;57.660;12.000;2022-08-19T03:56:43;30.45;;;14.68;;
44366;SDS011;30086;57.660;12.000;2022-08-19T03:59:12;28.98;;;15.20;;
44366;SDS011;30086;57.660;12.000;2022-08-19T04:01:38;27.95;;;13.65;;
44366;SDS011;30086;57.660;12.000;2022-08-19T04:04:04;34.60;;;15.18;;
44366;SDS011;30086;57.660;12.000;2022-08-19T04:06:32;35.13;;;15.57;;
44366;SDS011;30086;57.660;12.000;2022-08-19T04:08:59;26.50;;;14.98;;
44366;SDS011;30086;57.660;12.000;2022-08-19T04:11:30;22.77;;;14.52;;
44366;SDS011;30086;57.660;12.000;2022-08-19T04:13:57;27.73;;;15.27;;
44366;SDS011;30086;57.660;12.000;2022-08-19T04:16:24;23.65;;;13.88;;
44366;SDS011;30086;57.660;12.000;2022-08-19T04:18:50;26.65;;;15.85;;
44366;SDS011;30086;57.660;12.000;2022-08-19T04:21:21;23.20;;;15.07;;
44366;SDS011;30086;57.660;12.000;2022-08-19T04:23:47;32.65;;;16.05;;
44366;SDS011;30086;57.660;12.000;2022-08-19T04:26:14;25.90;;;15.35;;
44366;SDS011;30086;57.660;12.000;2022-08-19T04:28:41;27.50;;;16.23;;
44366;SDS011;30086;57.660;12.000;2022-08-19T04:31:11;33.85;;;16.83;;
44366;SDS011;30086;57.660;12.000;2022-08-19T04:33:38;32.50;;;16.85;;
44366;SDS011;30086;57.660;12.000;2022-08-19T04:36:04;32.03;;;17.92;;
44366;SDS011;30086;57.660;12.000;2022-08-19T04:38:30;33.50;;;17.30;;
44366;SDS011;30086;57.660;12.000;2022-08-19T04:40:56;35.53;;;18.88;;
44366;SDS011;30086;57.660;12.000;2022-08-19T04:43:40;34.97;;;18.38;;
44366;SDS011;30086;57.660;12.000;2022-08-19T04:46:07;42.58;;;19.05;;
44366;SDS011;30086;57.660;12.000;2022-08-19T04:48:33;38.65;;;19.50;;
44366;SDS011;30086;57.660;12.000;2022-08-19T04:50:59;31.60;;;18.52;;
44366;SDS011;30086;57.660;12.000;2022-08-19T04:53:29;32.05;;;18.55;;
44366;SDS011;30086;57.660;12.000;2022-08-19T04:55:56;34.53;;;19.15;;
44366;SDS011;30086;57.660;12.000;2022-08-19T04:58:23;35.08;;;19.48;;
44366;SDS011;30086;57.660;12.000;2022-08-19T05:00:49;36.88;;;19.50;;
44366;SDS011;30086;57.660;12.000;2022-08-19T05:03:16;35.10;;;19.90;;
44366;SDS011;30086;57.660;12.000;2022-08-19T05:05:43;35.85;;;19.45;;
44366;SDS011;30086;57.660;12.000;2022-08-19T05:08:10;36.13;;;20.15;;
44366;SDS011;30086;57.660;12.000;2022-08-19T05:10:37;37.85;;;21.05;;
44366;SDS011;30086;57.660;12.000;2022-08-19T05:13:04;42.35;;;21.67;;
44366;SDS011;30086;57.660;12.000;2022-08-19T05:15:30;41.40;;;22.55;;
44366;SDS011;30086;57.660;12.000;2022-08-19T05:17:56;42.17;;;20.25;;
44366;SDS011;30086;57.660;12.000;2022-08-19T05:20:41;33.05;;;19.45;;
44366;SDS011;30086;57.660;12.000;2022-08-19T05:23:25;34.85;;;19.00;;
44366;SDS011;30086;57.660;12.000;2022-08-19T05:25:51;35.25;;;18.85;;
44366;SDS011;30086;57.660;12.000;2022-08-19T05:28:19;31.90;;;19.15;;
44366;SDS011;30086;57.660;12.000;2022-08-19T05:30:45;31.00;;;18.63;;
44366;SDS011;30086;57.660;12.000;2022-08-19T05:33:13;26.25;;;16.85;;
44366;SDS011;30086;57.660;12.000;2022-08-19T05:35:39;29.98;;;15.63;;
44366;SDS011;30086;57.660;12.000;2022-08-19T05:38:06;28.02;;;16.02;;
44366;SDS011;30086;57.660;12.000;2022-08-19T05:40:36;24.65;;;15.10;;
44366;SDS011;30086;57.660;12.000;2022-08-19T05:43:03;28.98;;;15.10;;
44366;SDS011;30086;57.660;12.000;2022-08-19T05:45:29;21.10;;;13.68;;
44366;SDS011;30086;57.660;12.000;2022-08-19T05:47:56;19.48;;;12.45;;
44366;SDS011;30086;57.660;12.000;2022-08-19T05:50:23;17.92;;;12.20;;
44366;SDS011;30086;57.660;12.000;2022-08-19T05:52:50;21.48;;;13.15;;
44366;SDS011;30086;57.660;12.000;2022-08-19T05:55:16;21.00;;;13.73;;
44366;SDS011;30086;57.660;12.000;2022-08-19T05:57:45;16.80;;;12.02;;
44366;SDS011;30086;57.660;12.000;2022-08-19T06:00:11;17.02;;;11.77;;
44366;SDS011;30086;57.660;12.000;2022-08-19T06:02:37;17.77;;;12.43;;
44366;SDS011;30086;57.660;12.000;2022-08-19T06:05:04;15.82;;;11.93;;
44366;SDS011;30086;57.660;12.000;2022-08-19T06:07:32;17.95;;;12.50;;
44366;SDS011;30086;57.660;12.000;2022-08-19T06:09:58;16.42;;;12.02;;
44366;SDS011;30086;57.660;12.000;2022-08-19T06:12:24;17.48;;;12.25;;
44366;SDS011;30086;57.660;12.000;2022-08-19T06:14:53;17.23;;;11.73;;
44366;SDS011;30086;57.660;12.000;2022-08-19T06:17:20;18.40;;;12.10;;
44366;SDS011;30086;57.660;12.000;2022-08-19T06:19:49;15.40;;;11.32;;
44366;SDS011;30086;57.660;12.000;2022-08-19T06:22:16;12.35;;;9.88;;
44366;SDS011;30086;57.660;12.000;2022-08-19T06:24:42;12.70;;;10.52;;
44366;SDS011;30086;57.660;12.000;2022-08-19T06:27:08;12.00;;;9.65;;
44366;SDS011;30086;57.660;12.000;2022-08-19T06:29:34;10.57;;;8.57;;
44366;SDS011;30086;57.660;12.000;2022-08-19T06:32:01;12.73;;;10.05;;
44366;SDS011;30086;57.660;12.000;2022-08-19T06:34:29;11.82;;;8.90;;
44366;SDS011;30086;57.660;12.000;2022-08-19T06:36:56;12.05;;;9.43;;
44366;SDS011;30086;57.660;12.000;2022-08-19T06:39:24;11.65;;;9.38;;
44366;SDS011;30086;57.660;12.000;2022-08-19T06:41:51;13.35;;;9.82;;
44366;SDS011;30086;57.660;12.000;2022-08-19T06:44:18;11.63;;;8.82;;
44366;SDS011;30086;57.660;12.000;2022-08-19T06:46:44;12.88;;;9.43;;
44366;SDS011;30086;57.660;12.000;2022-08-19T06:49:11;12.43;;;10.15;;
44366;SDS011;30086;57.660;12.000;2022-08-19T06:51:39;10.23;;;8.50;;
44366;SDS011;30086;57.660;12.000;2022-08-19T06:54:05;11.50;;;9.00;;
44366;SDS011;30086;57.660;12.000;2022-08-19T06:56:31;10.98;;;9.25;;
44366;SDS011;30086;57.660;12.000;2022-08-19T06:59:05;10.80;;;8.80;;
44366;SDS011;30086;57.660;12.000;2022-08-19T07:01:35;9.63;;;8.35;;
44366;SDS011;30086;57.660;12.000;2022-08-19T07:04:02;11.60;;;8.50;;
44366;SDS011;30086;57.660;12.000;2022-08-19T07:06:28;8.98;;;7.95;;
44366;SDS011;30086;57.660;12.000;2022-08-19T07:08:56;11.65;;;8.90;;
44366;SDS011;30086;57.660;12.000;2022-08-19T07:11:23;11.88;;;9.40;;
44366;SDS011;30086;57.660;12.000;2022-08-19T07:13:49;11.55;;;9.93;;
44366;SDS011;30086;57.660;12.000;2022-08-19T07:16:16;10.65;;;9.50;;
44366;SDS011;30086;57.660;12.000;2022-08-19T07:18:44;11.10;;;9.90;;
44366;SDS011;30086;57.660;12.000;2022-08-19T07:21:16;10.85;;;9.38;;
44366;SDS011;30086;57.660;12.000;2022-08-19T07:23:43;14.13;;;9.18;;
44366;SDS011;30086;57.660;12.000;2022-08-19T07:26:15;10.27;;;9.15;;
44366;SDS011;30086;57.660;12.000;2022-08-19T07:28:44;9.73;;;8.70;;
44366;SDS011;30086;57.660;12.000;2022-08-19T07:31:11;11.00;;;9.38;;
44366;SDS011;30086;57.660;12.000;2022-08-19T07:33:38;9.63;;;8.70;;
44366;SDS011;30086;57.660;12.000;2022-08-19T07:36:05;12.02;;;10.07;;
44366;SDS011;30086;57.660;12.000;2022-08-19T07:38:32;12.50;;;10.35;;
44366;SDS011;30086;57.660;12.000;2022-08-19T07:40:58;11.23;;;10.07;;
44366;SDS011;30086;57.660;12.000;2022-08-19T07:43:24;13.38;;;11.35;;
44366;SDS011;30086;57.660;12.000;2022-08-19T07:45:52;12.15;;;9.98;;
44366;SDS011;30086;57.660;12.000;2022-08-19T07:48:21;12.75;;;9.82;;
44366;SDS011;30086;57.660;12.000;2022-08-19T07:50:49;11.75;;;9.48;;
44366;SDS011;30086;57.660;12.000;2022-08-19T07:53:15;11.60;;;10.38;;
44366;SDS011;30086;57.660;12.000;2022-08-19T07:55:41;11.02;;;9.82;;
44366;SDS011;30086;57.660;12.000;2022-08-19T07:58:07;11.77;;;9.88;;
44366;SDS011;30086;57.660;12.000;2022-08-19T08:00:33;10.32;;;9.32;;
44366;SDS011;30086;57.660;12.000;2022-08-19T08:03:00;11.25;;;8.77;;
44366;SDS011;30086;57.660;12.000;2022-08-19T08:05:26;10.65;;;8.68;;
44366;SDS011;30086;57.660;12.000;2022-08-19T08:08:11;12.52;;;9.80;;
44366;SDS011;30086;57.660;12.000;2022-08-19T08:10:56;10.50;;;9.20;;
44366;SDS011;30086;57.660;12.000;2022-08-19T08:13:23;10.27;;;9.10;;
44366;SDS011;30086;57.660;12.000;2022-08-19T08:15:49;10.80;;;9.35;;
44366;SDS011;30086;57.660;12.000;2022-08-19T08:18:15;10.90;;;9.63;;
44366;SDS011;30086;57.660;12.000;2022-08-19T08:20:42;13.43;;;9.77;;
44366;SDS011;30086;57.660;12.000;2022-08-19T08:23:08;12.38;;;10.05;;
44366;SDS011;30086;57.660;12.000;2022-08-19T08:25:54;10.95;;;9.95;;
44366;SDS011;30086;57.660;12.000;2022-08-19T08:28:20;12.35;;;9.45;;
44366;SDS011;30086;57.660;12.000;2022-08-19T08:30:47;12.88;;;10.30;;
44366;SDS011;30086;57.660;12.000;2022-08-19T08:33:16;11.68;;;9.15;;
44366;SDS011;30086;57.660;12.000;2022-08-19T08:35:43;10.40;;;9.38;;
44366;SDS011;30086;57.660;12.000;2022-08-19T08:38:10;11.90;;;8.82;;
44366;SDS011;30086;57.660;12.000;2022-08-19T08:43:07;13.93;;;10.70;;
44366;SDS011;30086;57.660;12.000;2022-08-19T08:45:36;14.85;;;8.25;;
44366;SDS011;30086;57.660;12.000;2022-08-19T08:48:11;9.70;;;8.70;;
44366;SDS011;30086;57.660;12.000;2022-08-19T08:50:41;10.45;;;9.35;;
44366;SDS011;30086;57.660;12.000;2022-08-19T08:53:09;10.07;;;8.65;;
44366;SDS011;30086;57.660;12.000;2022-08-19T08:55:36;12.95;;;10.20;;
44366;SDS011;30086;57.660;12.000;2022-08-19T09:00:30;10.02;;;8.75;;
44366;SDS011;30086;57.660;12.000;2022-08-19T09:02:57;12.10;;;8.60;;
44366;SDS011;30086;57.660;12.000;2022-08-19T09:05:23;10.13;;;8.73;;
44366;SDS011;30086;57.660;12.000;2022-08-19T09:10:28;9.80;;;8.90;;
44366;SDS011;30086;57.660;12.000;2022-08-19T09:13:01;9.88;;;8.88;;
44366;SDS011;30086;57.660;12.000;2022-08-19T09:15:42;9.60;;;8.52;;
44366;SDS011;30086;57.660;12.000;2022-08-19T09:18:09;9.88;;;8.88;;
44366;SDS011;30086;57.660;12.000;2022-08-19T09:20:36;9.20;;;8.30;;
44366;SDS011;30086;57.660;12.000;2022-08-19T09:23:02;9.43;;;8.38;;
44366;SDS011;30086;57.660;12.000;2022-08-19T09:25:29;14.15;;;8.95;;
44366;SDS011;30086;57.660;12.000;2022-08-19T09:27:56;10.85;;;8.57;;
44366;SDS011;30086;57.660;12.000;2022-08-19T09:30:29;13.73;;;8.88;;
44366;SDS011;30086;57.660;12.000;2022-08-19T09:32:55;12.07;;;9.75;;
44366;SDS011;30086;57.660;12.000;2022-08-19T09:35:22;13.15;;;8.80;;
44366;SDS011;30086;57.660;12.000;2022-08-19T09:37:48;13.70;;;8.73;;
44366;SDS011;30086;57.660;12.000;2022-08-19T09:40:15;9.35;;;8.38;;
44366;SDS011;30086;57.660;12.000;2022-08-19T09:42:42;13.38;;;8.63;;
44366;SDS011;30086;57.660;12.000;2022-08-19T09:45:09;10.88;;;8.55;;
44366;SDS011;30086;57.660;12.000;2022-08-19T09:47:36;12.10;;;8.43;;
44366;SDS011;30086;57.660;12.000;2022-08-19T09:50:04;10.40;;;7.63;;
44366;SDS011;30086;57.660;12.000;2022-08-19T09:52:30;13.50;;;9.45;;
44366;SDS011;30086;57.660;12.000;2022-08-19T09:54:56;11.77;;;9.43;;
44366;SDS011;30086;57.660;12.000;2022-08-19T09:57:22;11.23;;;9.13;;
44366;SDS011;30086;57.660;12.000;2022-08-19T09:59:48;13.57;;;9.45;;
44366;SDS011;30086;57.660;12.000;2022-08-19T10:02:14;17.10;;;8.60;;
44366;SDS011;30086;57.660;12.000;2022-08-19T10:04:40;16.05;;;8.20;;
44366;SDS011;30086;57.660;12.000;2022-08-19T10:07:25;13.25;;;10.13;;
44366;SDS011;30086;57.660;12.000;2022-08-19T10:09:51;15.45;;;9.52;;
44366;SDS011;30086;57.660;12.000;2022-08-19T10:12:17;14.02;;;8.48;;
44366;SDS011;30086;57.660;12.000;2022-08-19T10:14:43;14.13;;;10.07;;
44366;SDS011;30086;57.660;12.000;2022-08-19T10:17:10;15.27;;;9.38;;
44366;SDS011;30086;57.660;12.000;2022-08-19T10:19:36;15.38;;;8.68;;
44366;SDS011;30086;57.660;12.000;2022-08-19T10:22:03;15.48;;;9.50;;
44366;SDS011;30086;57.660;12.000;2022-08-19T10:24:30;14.63;;;10.27;;
44366;SDS011;30086;57.660;12.000;2022-08-19T10:26:56;18.45;;;10.30;;
44366;SDS011;30086;57.660;12.000;2022-08-19T10:29:22;16.10;;;9.80;;
44366;SDS011;30086;57.660;12.000;2022-08-19T10:31:49;10.88;;;9.60;;
44366;SDS011;30086;57.660;12.000;2022-08-19T10:34:14;14.05;;;9.65;;
44366;SDS011;30086;57.660;12.000;2022-08-19T10:36:40;10.90;;;8.68;;
44366;SDS011;30086;57.660;12.000;2022-08-19T10:39:08;13.10;;;9.18;;
44366;SDS011;30086;57.660;12.000;2022-08-19T10:41:36;14.60;;;9.55;;
44366;SDS011;30086;57.660;12.000;2022-08-19T10:44:12;14.27;;;8.70;;
44366;SDS011;30086;57.660;12.000;2022-08-19T10:46:39;11.02;;;8.93;;
44366;SDS011;30086;57.660;12.000;2022-08-19T10:49:06;12.52;;;8.73;;
44366;SDS011;30086;57.660;12.000;2022-08-19T10:51:33;10.93;;;8.95;;
44366;SDS011;30086;57.660;12.000;2022-08-19T10:54:17;12.23;;;8.90;;
44366;SDS011;30086;57.660;12.000;2022-08-19T10:56:44;12.23;;;9.30;;
44366;SDS011;30086;57.660;12.000;2022-08-19T10:59:16;12.68;;;9.65;;
44366;SDS011;30086;57.660;12.000;2022-08-19T11:01:43;14.55;;;8.75;;
44366;SDS011;30086;57.660;12.000;2022-08-19T11:04:09;11.07;;;8.38;;
44366;SDS011;30086;57.660;12.000;2022-08-19T11:06:38;10.48;;;8.70;;
44366;SDS011;30086;57.660;12.000;2022-08-19T11:09:06;23.23;;;9.38;;
44366;SDS011;30086;57.660;12.000;2022-08-19T11:11:33;12.88;;;8.65;;
44366;SDS011;30086;57.660;12.000;2022-08-19T11:14:04;11.65;;;8.73;;
44366;SDS011;30086;57.660;12.000;2022-08-19T11:16:30;9.85;;;7.85;;
44366;SDS011;30086;57.660;12.000;2022-08-19T11:18:58;9.48;;;8.18;;
44366;SDS011;30086;57.660;12.000;2022-08-19T11:21:34;10.93;;;8.95;;
44366;SDS011;30086;57.660;12.000;2022-08-19T11:24:02;11.82;;;8.52;;
44366;SDS011;30086;57.660;12.000;2022-08-19T11:26:29;15.18;;;7.25;;
44366;SDS011;30086;57.660;12.000;2022-08-19T11:28:56;9.23;;;7.90;;
44366;SDS011;30086;57.660;12.000;2022-08-19T11:31:23;10.82;;;8.07;;
44366;SDS011;30086;57.660;12.000;2022-08-19T11:33:50;13.68;;;7.88;;
44366;SDS011;30086;57.660;12.000;2022-08-19T11:36:16;12.18;;;7.82;;
44366;SDS011;30086;57.660;12.000;2022-08-19T11:38:44;10.68;;;7.80;;
44366;SDS011;30086;57.660;12.000;2022-08-19T11:41:10;16.23;;;8.57;;
44366;SDS011;30086;57.660;12.000;2022-08-19T11:43:36;11.02;;;7.47;;
44366;SDS011;30086;57.660;12.000;2022-08-19T11:46:06;9.73;;;8.05;;
44366;SDS011;30086;57.660;12.000;2022-08-19T11:48:33;10.25;;;6.97;;
44366;SDS011;30086;57.660;12.000;2022-08-19T11:50:59;10.02;;;7.53;;
44366;SDS011;30086;57.660;12.000;2022-08-19T11:53:30;11.85;;;7.47;;
44366;SDS011;30086;57.660;12.000;2022-08-19T11:55:56;20.60;;;7.25;;
44366;SDS011;30086;57.660;12.000;2022-08-19T11:58:23;12.90;;;8.25;;
44366;SDS011;30086;57.660;12.000;2022-08-19T12:00:54;14.27;;;7.20;;
44366;SDS011;30086;57.660;12.000;2022-08-19T12:03:21;11.88;;;7.82;;
44366;SDS011;30086;57.660;12.000;2022-08-19T12:05:47;10.55;;;9.02;;
44366;SDS011;30086;57.660;12.000;2022-08-19T12:08:14;11.45;;;8.05;;
44366;SDS011;30086;57.660;12.000;2022-08-19T12:10:41;8.88;;;7.72;;
44366;SDS011;30086;57.660;12.000;2022-08-19T12:13:08;15.73;;;8.30;;
44366;SDS011;30086;57.660;12.000;2022-08-19T12:15:37;15.73;;;8.20;;
44366;SDS011;30086;57.660;12.000;2022-08-19T12:18:05;13.68;;;9.75;;
44366;SDS011;30086;57.660;12.000;2022-08-19T12:20:33;11.40;;;8.45;;
44366;SDS011;30086;57.660;12.000;2022-08-19T12:23:03;10.38;;;8.48;;
44366;SDS011;30086;57.660;12.000;2022-08-19T12:25:29;11.50;;;8.45;;
44366;SDS011;30086;57.660;12.000;2022-08-19T12:27:56;10.70;;;9.43;;
44366;SDS011;30086;57.660;12.000;2022-08-19T12:30:22;13.50;;;9.07;;
44366;SDS011;30086;57.660;12.000;2022-08-19T12:32:48;11.50;;;8.98;;
44366;SDS011;30086;57.660;12.000;2022-08-19T12:35:16;9.93;;;8.50;;
44366;SDS011;30086;57.660;12.000;2022-08-19T12:37:42;10.32;;;9.00;;
44366;SDS011;30086;57.660;12.000;2022-08-19T12:40:09;12.15;;;9.02;;
44366;SDS011;30086;57.660;12.000;2022-08-19T12:42:37;11.52;;;9.45;;
44366;SDS011;30086;57.660;12.000;2022-08-19T12:45:06;13.35;;;9.75;;
44366;SDS011;30086;57.660;12.000;2022-08-19T12:47:32;11.55;;;9.27;;
44366;SDS011;30086;57.660;12.000;2022-08-19T12:49:58;13.38;;;9.30;;
44366;SDS011;30086;57.660;12.000;2022-08-19T12:52:24;13.43;;;9.63;;
44366;SDS011;30086;57.660;12.000;2022-08-19T12:54:52;11.88;;;9.75;;
44366;SDS011;30086;57.660;12.000;2022-08-19T12:57:19;15.15;;;9.80;;
44366;SDS011;30086;57.660;12.000;2022-08-19T12:59:45;11.48;;;9.07;;
44366;SDS011;30086;57.660;12.000;2022-08-19T13:02:11;16.70;;;9.77;;
44366;SDS011;30086;57.660;12.000;2022-08-19T13:04:37;13.88;;;9.88;;
44366;SDS011;30086;57.660;12.000;2022-08-19T13:07:05;12.27;;;9.93;;
44366;SDS011;30086;57.660;12.000;2022-08-19T13:09:32;11.65;;;9.38;;
44366;SDS011;30086;57.660;12.000;2022-08-19T13:11:58;11.57;;;8.57;;
44366;SDS011;30086;57.660;12.000;2022-08-19T13:14:27;10.18;;;5.35;;
44366;SDS011;30086;57.660;12.000;2022-08-19T13:16:56;6.47;;;4.97;;
44366;SDS011;30086;57.660;12.000;2022-08-19T13:19:22;5.70;;;3.75;;
44366;SDS011;30086;57.660;12.000;2022-08-19T13:21:49;9.00;;;3.92;;
44366;SDS011;30086;57.660;12.000;2022-08-19T13:24:16;13.32;;;4.00;;
44366;SDS011;30086;57.660;12.000;2022-08-19T13:26:43;5.20;;;3.90;;
44366;SDS011;30086;57.660;12.000;2022-08-19T13:29:09;5.28;;;3.58;;
44366;SDS011;30086;57.660;12.000;2022-08-19T13:31:53;7.22;;;3.55;;
44366;SDS011;30086;57.660;12.000;2022-08-19T13:34:38;4.38;;;2.97;;
44366;SDS011;30086;57.660;12.000;2022-08-19T13:37:04;6.18;;;3.38;;
44366;SDS011;30086;57.660;12.000;2022-08-19T13:39:31;8.55;;;3.78;;
44366;SDS011;30086;57.660;12.000;2022-08-19T13:41:57;6.20;;;3.40;;
44366;SDS011;30086;57.660;12.000;2022-08-19T13:44:25;7.68;;;3.80;;
44366;SDS011;30086;57.660;12.000;2022-08-19T13:46:54;9.55;;;4.20;;
44366;SDS011;30086;57.660;12.000;2022-08-19T13:49:20;7.63;;;3.85;;
44366;SDS011;30086;57.660;12.000;2022-08-19T13:51:48;7.40;;;4.15;;
44366;SDS011;30086;57.660;12.000;2022-08-19T13:54:14;8.20;;;3.78;;
44366;SDS011;30086;57.660;12.000;2022-08-19T13:56:41;7.50;;;3.83;;
44366;SDS011;30086;57.660;12.000;2022-08-19T13:59:07;8.38;;;4.32;;
44366;SDS011;30086;57.660;12.000;2022-08-19T14:01:33;6.72;;;3.38;;
44366;SDS011;30086;57.660;12.000;2022-08-19T14:03:59;8.70;;;3.53;;
44366;SDS011;30086;57.660;12.000;2022-08-19T14:06:26;3.97;;;3.10;;
44366;SDS011;30086;57.660;12.000;2022-08-19T14:08:52;5.95;;;3.45;;
44366;SDS011;30086;57.660;12.000;2022-08-19T14:11:18;9.43;;;4.03;;
44366;SDS011;30086;57.660;12.000;2022-08-19T14:13:44;6.32;;;3.80;;
44366;SDS011;30086;57.660;12.000;2022-08-19T14:16:11;8.40;;;3.63;;
44366;SDS011;30086;57.660;12.000;2022-08-19T14:18:37;6.95;;;3.25;;
44366;SDS011;30086;57.660;12.000;2022-08-19T14:21:04;4.72;;;2.50;;
44366;SDS011;30086;57.660;12.000;2022-08-19T14:23:31;6.13;;;3.38;;
44366;SDS011;30086;57.660;12.000;2022-08-19T14:26:04;11.50;;;3.38;;